sensor_id;sensor_type;location;lat;lon;timestamp;pressure;altitude;pressure_sealevel;temperature;humidity
28181;BME280;15464;50.988;10.318;2023-05-02T00:00:54;98923.50;;;9.86;75.79
28181;BME280;15464;50.988;10.318;2023-05-02T00:03:21;98927.13;;;9.85;75.35
28181;BME280;15464;50.988;10.318;2023-05-02T00:05:48;98925.44;;;9.84;75.68
28181;BME280;15464;50.988;10.318;2023-05-02T00:08:15;98930.16;;;9.80;76.40
28181;BME280;15464;50.988;10.318;2023-05-02T00:10:42;98924.97;;;9.79;76.32
28181;BME280;15464;50.988;10.318;2023-05-02T00:13:09;98931.81;;;9.81;76.44
28181;BME280;15464;50.988;10.318;2023-05-02T00:15:35;98923.75;;;9.83;76.72
28181;BME280;15464;50.988;10.318;2023-05-02T00:18:02;98931.47;;;9.86;76.95
28181;BME280;15464;50.988;10.318;2023-05-02T00:20:29;98940.81;;;9.90;77.25
28181;BME280;15464;50.988;10.318;2023-05-02T00:22:55;98936.59;;;9.87;77.03
28181;BME280;15464;50.988;10.318;2023-05-02T00:25:22;98927.13;;;9.85;76.67
28181;BME280;15464;50.988;10.318;2023-05-02T00:27:49;98923.75;;;9.83;77.94
28181;BME280;15464;50.988;10.318;2023-05-02T00:30:17;98924.34;;;9.86;77.85
28181;BME280;15464;50.988;10.318;2023-05-02T00:32:44;98921.69;;;9.86;77.96
28181;BME280;15464;50.988;10.318;2023-05-02T00:35:10;98920.13;;;9.84;77.72
28181;BME280;15464;50.988;10.318;2023-05-02T00:37:37;98923.75;;;9.83;77.30
28181;BME280;15464;50.988;10.318;2023-05-02T00:40:06;98930.72;;;9.84;77.45
28181;BME280;15464;50.988;10.318;2023-05-02T00:42:33;98930.97;;;9.81;77.36
28181;BME280;15464;50.988;10.318;2023-05-02T00:45:05;98929.03;;;9.83;77.32
28181;BME280;15464;50.988;10.318;2023-05-02T00:47:32;98930.97;;;9.81;77.19
28181;BME280;15464;50.988;10.318;2023-05-02T00:50:00;98931.97;;;9.80;77.71
28181;BME280;15464;50.988;10.318;2023-05-02T00:52:27;98931.22;;;9.78;77.16
28181;BME280;15464;50.988;10.318;2023-05-02T00:54:54;98933.88;;;9.78;77.92
28181;BME280;15464;50.988;10.318;2023-05-02T00:57:21;98938.00;;;9.70;78.55
28181;BME280;15464;50.988;10.318;2023-05-02T00:59:48;98939.81;;;9.70;80.12
28181;BME280;15464;50.988;10.318;2023-05-02T01:02:42;98945.22;;;9.68;78.35
28181;BME280;15464;50.988;10.318;2023-05-02T01:07:53;98940.75;;;9.69;80.06
28181;BME280;15464;50.988;10.318;2023-05-02T01:11:33;98953.16;;;9.68;80.04
28181;BME280;15464;50.988;10.318;2023-05-02T01:13:33;98958.97;;;9.62;80.08
28181;BME280;15464;50.988;10.318;2023-05-02T01:16:02;98951.75;;;9.64;79.59
28181;BME280;15464;50.988;10.318;2023-05-02T01:18:33;98952.00;;;9.61;80.31
28181;BME280;15464;50.988;10.318;2023-05-02T01:21:05;98957.41;;;9.60;80.00
28181;BME280;15464;50.988;10.318;2023-05-02T01:23:55;98964.53;;;9.59;79.57
28181;BME280;15464;50.988;10.318;2023-05-02T01:26:33;98968.75;;;9.51;80.97
28181;BME280;15464;50.988;10.318;2023-05-02T01:29:04;98964.78;;;9.45;81.49
28181;BME280;15464;50.988;10.318;2023-05-02T01:31:34;98972.63;;;9.36;81.94
28181;BME280;15464;50.988;10.318;2023-05-02T01:34:04;98966.25;;;9.38;81.31
28181;BME280;15464;50.988;10.318;2023-05-02T01:36:33;98975.75;;;9.41;81.38
28181;BME280;15464;50.988;10.318;2023-05-02T01:39:00;98973.47;;;9.36;81.79
28181;BME280;15464;50.988;10.318;2023-05-02T01:41:30;98967.34;;;9.36;82.13
28181;BME280;15464;50.988;10.318;2023-05-02T01:43:58;98969.25;;;9.34;80.47
28181;BME280;15464;50.988;10.318;2023-05-02T01:46:26;98973.97;;;9.30;81.66
28181;BME280;15464;50.988;10.318;2023-05-02T01:48:56;98980.34;;;9.27;80.85
28181;BME280;15464;50.988;10.318;2023-05-02T01:51:27;98970.09;;;9.34;81.70
28181;BME280;15464;50.988;10.318;2023-05-02T01:54:02;98985.41;;;9.30;82.19
28181;BME280;15464;50.988;10.318;2023-05-02T01:56:33;98980.09;;;9.30;80.86
28181;BME280;15464;50.988;10.318;2023-05-02T01:59:01;98986.22;;;9.31;80.20
28181;BME280;15464;50.988;10.318;2023-05-02T02:01:30;98982.59;;;9.32;79.73
28181;BME280;15464;50.988;10.318;2023-05-02T02:03:59;98986.00;;;9.34;79.74
28181;BME280;15464;50.988;10.318;2023-05-02T02:06:26;98994.66;;;9.36;79.95
28181;BME280;15464;50.988;10.318;2023-05-02T02:08:53;98992.72;;;9.38;80.65
28181;BME280;15464;50.988;10.318;2023-05-02T02:11:35;99000.78;;;9.37;80.85
28181;BME280;15464;50.988;10.318;2023-05-02T02:14:13;99001.88;;;9.34;82.32
28181;BME280;15464;50.988;10.318;2023-05-02T02:16:43;99000.19;;;9.33;83.50
28181;BME280;15464;50.988;10.318;2023-05-02T02:19:12;99001.13;;;9.32;83.30
28181;BME280;15464;50.988;10.318;2023-05-02T02:21:46;99007.38;;;9.31;82.44
28181;BME280;15464;50.988;10.318;2023-05-02T02:24:15;99007.53;;;9.29;82.75
28181;BME280;15464;50.988;10.318;2023-05-02T02:26:44;99004.03;;;9.29;82.01
28181;BME280;15464;50.988;10.318;2023-05-02T02:29:11;99011.50;;;9.24;82.81
28181;BME280;15464;50.988;10.318;2023-05-02T02:31:38;99013.16;;;9.25;82.25
28181;BME280;15464;50.988;10.318;2023-05-02T02:34:05;99016.06;;;9.11;84.03
28181;BME280;15464;50.988;10.318;2023-05-02T02:36:38;99017.50;;;9.15;82.52
28181;BME280;15464;50.988;10.318;2023-05-02T02:42:09;99014.50;;;9.19;82.04
28181;BME280;15464;50.988;10.318;2023-05-02T02:45:25;99017.50;;;9.15;81.89
28181;BME280;15464;50.988;10.318;2023-05-02T02:50:34;99012.34;;;9.13;80.14
28181;BME280;15464;50.988;10.318;2023-05-02T02:53:04;99015.72;;;9.15;81.06
28181;BME280;15464;50.988;10.318;2023-05-02T03:01:10;99030.00;;;9.13;80.00
28181;BME280;15464;50.988;10.318;2023-05-02T03:03:42;99025.34;;;9.16;81.13
28181;BME280;15464;50.988;10.318;2023-05-02T03:06:09;99030.53;;;9.18;81.65
28181;BME280;15464;50.988;10.318;2023-05-02T03:08:41;99038.69;;;9.15;81.86
28181;BME280;15464;50.988;10.318;2023-05-02T03:11:09;99040.00;;;9.09;82.00
28181;BME280;15464;50.988;10.318;2023-05-02T03:13:36;99040.84;;;9.10;81.87
28181;BME280;15464;50.988;10.318;2023-05-02T03:18:52;99033.50;;;9.13;83.67
28181;BME280;15464;50.988;10.318;2023-05-02T03:21:19;99037.47;;;9.19;84.15
28181;BME280;15464;50.988;10.318;2023-05-02T03:23:46;99040.97;;;9.19;83.95
28181;BME280;15464;50.988;10.318;2023-05-02T03:26:12;99036.50;;;9.20;84.06
28181;BME280;15464;50.988;10.318;2023-05-02T03:28:39;99040.13;;;9.19;83.22
28181;BME280;15464;50.988;10.318;2023-05-02T03:31:06;99039.63;;;9.14;82.32
28181;BME280;15464;50.988;10.318;2023-05-02T03:33:33;99041.59;;;9.12;82.48
28181;BME280;15464;50.988;10.318;2023-05-02T03:35:59;99042.28;;;9.14;83.42
28181;BME280;15464;50.988;10.318;2023-05-02T03:38:28;99045.19;;;9.11;82.97
28181;BME280;15464;50.988;10.318;2023-05-02T03:40:58;99053.13;;;9.11;83.39
28181;BME280;15464;50.988;10.318;2023-05-02T03:43:24;99049.75;;;9.09;83.25
28181;BME280;15464;50.988;10.318;2023-05-02T03:45:51;99051.91;;;9.04;81.86
28181;BME280;15464;50.988;10.318;2023-05-02T03:48:18;99066.09;;;9.03;81.20
28181;BME280;15464;50.988;10.318;2023-05-02T03:50:45;99061.66;;;9.03;82.55
28181;BME280;15464;50.988;10.318;2023-05-02T03:53:12;99064.41;;;9.02;82.33
28181;BME280;15464;50.988;10.318;2023-05-02T03:55:39;99068.25;;;8.98;82.71
28181;BME280;15464;50.988;10.318;2023-05-02T03:58:06;99072.06;;;8.94;82.24
28181;BME280;15464;50.988;10.318;2023-05-02T04:00:33;99071.38;;;8.92;82.95
28181;BME280;15464;50.988;10.318;2023-05-02T04:03:00;99076.78;;;8.90;82.73
28181;BME280;15464;50.988;10.318;2023-05-02T04:05:27;99085.06;;;8.85;82.68
28181;BME280;15464;50.988;10.318;2023-05-02T04:07:55;99087.22;;;8.80;82.92
28181;BME280;15464;50.988;10.318;2023-05-02T04:10:22;99085.53;;;8.79;82.80
28181;BME280;15464;50.988;10.318;2023-05-02T04:12:48;99097.91;;;8.79;83.03
28181;BME280;15464;50.988;10.318;2023-05-02T04:15:15;99107.84;;;8.75;84.06
28181;BME280;15464;50.988;10.318;2023-05-02T04:17:42;99107.41;;;8.81;85.78
28181;BME280;15464;50.988;10.318;2023-05-02T04:20:10;99110.41;;;8.77;84.60
28181;BME280;15464;50.988;10.318;2023-05-02T04:22:36;99117.28;;;8.79;85.18
28181;BME280;15464;50.988;10.318;2023-05-02T04:25:05;99120.03;;;8.78;84.86
28181;BME280;15464;50.988;10.318;2023-05-02T04:27:33;99119.19;;;8.77;85.49
28181;BME280;15464;50.988;10.318;2023-05-02T04:29:59;99118.69;;;8.72;85.43
28181;BME280;15464;50.988;10.318;2023-05-02T04:32:27;99123.97;;;8.72;85.74
28181;BME280;15464;50.988;10.318;2023-05-02T04:34:53;99125.88;;;8.70;85.56
28181;BME280;15464;50.988;10.318;2023-05-02T04:37:21;99132.75;;;8.73;86.11
28181;BME280;15464;50.988;10.318;2023-05-02T04:39:48;99124.94;;;8.71;85.81
28181;BME280;15464;50.988;10.318;2023-05-02T04:42:14;99139.34;;;8.67;84.86
28181;BME280;15464;50.988;10.318;2023-05-02T04:44:41;99146.53;;;8.65;84.99
28181;BME280;15464;50.988;10.318;2023-05-02T04:47:07;99155.53;;;8.63;85.72
28181;BME280;15464;50.988;10.318;2023-05-02T04:49:34;99150.47;;;8.60;84.97
28181;BME280;15464;50.988;10.318;2023-05-02T04:52:01;99160.94;;;8.61;84.58
28181;BME280;15464;50.988;10.318;2023-05-02T04:54:28;99164.31;;;8.63;84.79
28181;BME280;15464;50.988;10.318;2023-05-02T04:56:56;99163.47;;;8.63;83.99
28181;BME280;15464;50.988;10.318;2023-05-02T04:59:24;99171.69;;;8.71;85.37
28181;BME280;15464;50.988;10.318;2023-05-02T05:01:51;99174.22;;;8.72;85.99
28181;BME280;15464;50.988;10.318;2023-05-02T05:04:18;99186.25;;;8.76;85.87
28181;BME280;15464;50.988;10.318;2023-05-02T05:06:45;99181.59;;;8.80;87.99
28181;BME280;15464;50.988;10.318;2023-05-02T05:09:14;99175.59;;;8.89;88.15
28181;BME280;15464;50.988;10.318;2023-05-02T05:11:41;99185.13;;;8.92;87.93
28181;BME280;15464;50.988;10.318;2023-05-02T05:14:11;99192.69;;;8.96;87.49
28181;BME280;15464;50.988;10.318;2023-05-02T05:16:38;99196.94;;;8.99;86.78
28181;BME280;15464;50.988;10.318;2023-05-02T05:19:05;99193.09;;;9.03;86.61
28181;BME280;15464;50.988;10.318;2023-05-02T05:21:32;99204.66;;;9.13;87.05
28181;BME280;15464;50.988;10.318;2023-05-02T05:23:58;99206.72;;;9.20;87.34
28181;BME280;15464;50.988;10.318;2023-05-02T05:26:26;99204.56;;;9.25;88.56
28181;BME280;15464;50.988;10.318;2023-05-02T05:28:52;99204.94;;;9.32;88.57
28181;BME280;15464;50.988;10.318;2023-05-02T05:31:19;99213.91;;;9.42;88.68
28181;BME280;15464;50.988;10.318;2023-05-02T05:33:46;99211.28;;;9.53;88.26
28181;BME280;15464;50.988;10.318;2023-05-02T05:36:13;99212.34;;;9.62;88.69
28181;BME280;15464;50.988;10.318;2023-05-02T05:38:43;99219.72;;;9.69;87.77
28181;BME280;15464;50.988;10.318;2023-05-02T05:41:11;99219.97;;;9.78;87.26
28181;BME280;15464;50.988;10.318;2023-05-02T05:43:38;99216.72;;;9.85;86.72
28181;BME280;15464;50.988;10.318;2023-05-02T05:46:04;99228.66;;;9.91;85.84
28181;BME280;15464;50.988;10.318;2023-05-02T05:48:31;99224.31;;;10.01;85.60
28181;BME280;15464;50.988;10.318;2023-05-02T05:51:02;99225.28;;;10.11;85.25
28181;BME280;15464;50.988;10.318;2023-05-02T05:53:29;99233.47;;;10.19;85.09
28181;BME280;15464;50.988;10.318;2023-05-02T05:55:56;99234.69;;;10.26;85.05
28181;BME280;15464;50.988;10.318;2023-05-02T05:58:23;99226.97;;;10.34;85.66
28181;BME280;15464;50.988;10.318;2023-05-02T06:00:50;99236.81;;;10.43;86.02
28181;BME280;15464;50.988;10.318;2023-05-02T06:03:16;99247.22;;;10.46;85.48
28181;BME280;15464;50.988;10.318;2023-05-02T06:05:43;99239.00;;;10.61;84.84
28181;BME280;15464;50.988;10.318;2023-05-02T06:08:10;99246.91;;;10.72;84.94
28181;BME280;15464;50.988;10.318;2023-05-02T06:10:36;99248.56;;;10.84;84.76
28181;BME280;15464;50.988;10.318;2023-05-02T06:13:03;99248.47;;;10.85;85.07
28181;BME280;15464;50.988;10.318;2023-05-02T06:15:32;99260.75;;;10.86;84.87
28181;BME280;15464;50.988;10.318;2023-05-02T06:17:59;99256.72;;;11.03;83.98
28181;BME280;15464;50.988;10.318;2023-05-02T06:20:26;99255.31;;;11.20;83.94
28181;BME280;15464;50.988;10.318;2023-05-02T06:22:52;99262.53;;;11.29;83.70
28181;BME280;15464;50.988;10.318;2023-05-02T06:25:19;99265.81;;;11.21;83.35
28181;BME280;15464;50.988;10.318;2023-05-02T06:27:46;99272.53;;;11.25;82.79
28181;BME280;15464;50.988;10.318;2023-05-02T06:30:13;99272.72;;;11.13;83.04
28181;BME280;15464;50.988;10.318;2023-05-02T06:32:39;99280.31;;;11.17;83.62
28181;BME280;15464;50.988;10.318;2023-05-02T06:35:09;99275.19;;;11.37;82.79
28181;BME280;15464;50.988;10.318;2023-05-02T06:37:37;99280.09;;;11.41;82.85
28181;BME280;15464;50.988;10.318;2023-05-02T06:40:04;99281.28;;;11.48;82.26
28181;BME280;15464;50.988;10.318;2023-05-02T06:42:31;99279.63;;;11.57;82.59
28181;BME280;15464;50.988;10.318;2023-05-02T06:44:57;99290.22;;;11.68;82.26
28181;BME280;15464;50.988;10.318;2023-05-02T06:47:24;99299.03;;;11.48;82.10
28181;BME280;15464;50.988;10.318;2023-05-02T06:49:51;99291.84;;;11.59;82.18
28181;BME280;15464;50.988;10.318;2023-05-02T06:52:19;99298.25;;;11.57;81.70
28181;BME280;15464;50.988;10.318;2023-05-02T06:54:45;99301.34;;;11.62;82.44
28181;BME280;15464;50.988;10.318;2023-05-02T06:57:12;99301.97;;;11.33;82.79
28181;BME280;15464;50.988;10.318;2023-05-02T06:59:39;99307.63;;;11.40;82.69
28181;BME280;15464;50.988;10.318;2023-05-02T07:02:05;99316.38;;;11.52;82.25
28181;BME280;15464;50.988;10.318;2023-05-02T07:04:32;99313.66;;;11.63;82.30
28181;BME280;15464;50.988;10.318;2023-05-02T07:06:59;99317.97;;;11.75;82.35
28181;BME280;15464;50.988;10.318;2023-05-02T07:09:26;99323.25;;;11.86;81.56
28181;BME280;15464;50.988;10.318;2023-05-02T07:11:52;99320.06;;;11.92;81.17
28181;BME280;15464;50.988;10.318;2023-05-02T07:14:19;99322.91;;;12.00;80.97
28181;BME280;15464;50.988;10.318;2023-05-02T07:16:47;99321.28;;;12.09;80.75
28181;BME280;15464;50.988;10.318;2023-05-02T07:19:14;99332.38;;;11.93;80.97
28181;BME280;15464;50.988;10.318;2023-05-02T07:21:40;99330.31;;;11.97;81.55
28181;BME280;15464;50.988;10.318;2023-05-02T07:24:07;99328.69;;;11.85;81.95
28181;BME280;15464;50.988;10.318;2023-05-02T07:26:34;99336.38;;;11.88;81.89
28181;BME280;15464;50.988;10.318;2023-05-02T07:29:00;99334.25;;;11.82;81.19
28181;BME280;15464;50.988;10.318;2023-05-02T07:31:27;99334.75;;;11.76;81.05
28181;BME280;15464;50.988;10.318;2023-05-02T07:33:54;99329.22;;;11.79;81.25
28181;BME280;15464;50.988;10.318;2023-05-02T07:36:21;99334.91;;;11.63;82.14
28181;BME280;15464;50.988;10.318;2023-05-02T07:38:48;99328.09;;;11.81;81.71
28181;BME280;15464;50.988;10.318;2023-05-02T07:41:14;99334.47;;;11.90;81.42
28181;BME280;15464;50.988;10.318;2023-05-02T07:43:41;99344.16;;;12.00;80.51
28181;BME280;15464;50.988;10.318;2023-05-02T07:46:08;99338.34;;;12.06;79.30
28181;BME280;15464;50.988;10.318;2023-05-02T07:48:35;99327.25;;;12.22;79.05
28181;BME280;15464;50.988;10.318;2023-05-02T07:51:06;99328.97;;;12.33;78.56
28181;BME280;15464;50.988;10.318;2023-05-02T07:53:32;99332.34;;;12.35;78.26
28181;BME280;15464;50.988;10.318;2023-05-02T07:55:59;99343.34;;;12.51;78.50
28181;BME280;15464;50.988;10.318;2023-05-02T07:58:26;99343.94;;;12.64;77.17
28181;BME280;15464;50.988;10.318;2023-05-02T08:00:53;99342.00;;;12.66;76.85
28181;BME280;15464;50.988;10.318;2023-05-02T08:03:20;99343.16;;;12.73;76.12
28181;BME280;15464;50.988;10.318;2023-05-02T08:05:47;99351.28;;;12.81;75.63
28181;BME280;15464;50.988;10.318;2023-05-02T08:08:14;99348.69;;;12.91;74.75
28181;BME280;15464;50.988;10.318;2023-05-02T08:10:40;99344.38;;;13.09;74.19
28181;BME280;15464;50.988;10.318;2023-05-02T08:13:07;99347.25;;;13.27;72.83
28181;BME280;15464;50.988;10.318;2023-05-02T08:15:34;99352.59;;;13.46;73.38
28181;BME280;15464;50.988;10.318;2023-05-02T08:18:01;99347.81;;;13.50;71.58
28181;BME280;15464;50.988;10.318;2023-05-02T08:20:28;99355.41;;;13.35;71.02
28181;BME280;15464;50.988;10.318;2023-05-02T08:22:54;99346.94;;;13.20;70.64
28181;BME280;15464;50.988;10.318;2023-05-02T08:25:24;99352.69;;;13.16;70.27
28181;BME280;15464;50.988;10.318;2023-05-02T08:27:51;99359.41;;;13.20;70.77
28181;BME280;15464;50.988;10.318;2023-05-02T08:30:18;99370.38;;;13.17;70.99
28181;BME280;15464;50.988;10.318;2023-05-02T08:32:45;99367.97;;;13.14;71.38
28181;BME280;15464;50.988;10.318;2023-05-02T08:35:12;99374.38;;;13.11;72.22
28181;BME280;15464;50.988;10.318;2023-05-02T08:37:39;99380.66;;;13.01;72.99
28181;BME280;15464;50.988;10.318;2023-05-02T08:40:10;99385.53;;;12.96;74.12
28181;BME280;15464;50.988;10.318;2023-05-02T08:42:40;99386.06;;;12.89;74.92
28181;BME280;15464;50.988;10.318;2023-05-02T08:45:08;99386.63;;;12.93;74.42
28181;BME280;15464;50.988;10.318;2023-05-02T08:47:39;99393.34;;;12.87;74.72
28181;BME280;15464;50.988;10.318;2023-05-02T08:50:07;99388.66;;;12.70;74.26
28181;BME280;15464;50.988;10.318;2023-05-02T08:52:35;99386.63;;;12.83;74.28
28181;BME280;15464;50.988;10.318;2023-05-02T08:55:04;99390.44;;;12.90;72.26
28181;BME280;15464;50.988;10.318;2023-05-02T08:57:31;99393.63;;;13.15;70.84
28181;BME280;15464;50.988;10.318;2023-05-02T08:59:58;99392.44;;;13.48;70.29
28181;BME280;15464;50.988;10.318;2023-05-02T09:05:07;99393.97;;;13.69;69.23
28181;BME280;15464;50.988;10.318;2023-05-02T09:07:48;99394.41;;;13.94;69.24
28181;BME280;15464;50.988;10.318;2023-05-02T09:10:14;99396.22;;;14.22;66.39
28181;BME280;15464;50.988;10.318;2023-05-02T09:12:41;99393.13;;;14.07;66.53
28181;BME280;15464;50.988;10.318;2023-05-02T09:15:09;99392.16;;;13.60;67.46
28181;BME280;15464;50.988;10.318;2023-05-02T09:17:44;99410.25;;;13.47;67.63
28181;BME280;15464;50.988;10.318;2023-05-02T09:20:13;99412.56;;;13.31;68.80
28181;BME280;15464;50.988;10.318;2023-05-02T09:22:48;99416.06;;;13.22;68.98
28181;BME280;15464;50.988;10.318;2023-05-02T09:25:16;99421.66;;;13.19;69.66
28181;BME280;15464;50.988;10.318;2023-05-02T09:27:52;99426.00;;;13.20;68.98
28181;BME280;15464;50.988;10.318;2023-05-02T09:30:24;99428.13;;;13.26;69.30
28181;BME280;15464;50.988;10.318;2023-05-02T09:32:51;99424.97;;;13.51;69.04
28181;BME280;15464;50.988;10.318;2023-05-02T09:35:21;99424.53;;;13.56;69.19
28181;BME280;15464;50.988;10.318;2023-05-02T09:37:56;99431.19;;;13.61;69.71
28181;BME280;15464;50.988;10.318;2023-05-02T09:40:23;99424.41;;;13.57;70.36
28181;BME280;15464;50.988;10.318;2023-05-02T09:42:51;99431.69;;;13.46;68.79
28181;BME280;15464;50.988;10.318;2023-05-02T09:45:21;99427.78;;;13.59;68.47
28181;BME280;15464;50.988;10.318;2023-05-02T09:47:49;99422.22;;;13.91;67.84
28181;BME280;15464;50.988;10.318;2023-05-02T09:50:48;99426.56;;;14.02;66.69
28181;BME280;15464;50.988;10.318;2023-05-02T09:53:15;99429.91;;;14.23;67.57
28181;BME280;15464;50.988;10.318;2023-05-02T09:55:42;99429.75;;;14.25;67.29
28181;BME280;15464;50.988;10.318;2023-05-02T09:58:22;99429.75;;;14.34;66.00
28181;BME280;15464;50.988;10.318;2023-05-02T10:00:49;99427.53;;;14.49;64.41
28181;BME280;15464;50.988;10.318;2023-05-02T10:03:18;99428.84;;;14.72;64.55
28181;BME280;15464;50.988;10.318;2023-05-02T10:05:45;99427.63;;;14.57;61.75
28181;BME280;15464;50.988;10.318;2023-05-02T10:08:13;99431.66;;;14.71;61.60
28181;BME280;15464;50.988;10.318;2023-05-02T10:10:46;99427.28;;;14.79;61.20
28181;BME280;15464;50.988;10.318;2023-05-02T10:13:19;99428.28;;;14.69;61.60
28181;BME280;15464;50.988;10.318;2023-05-02T10:15:57;99429.72;;;14.73;62.20
28181;BME280;15464;50.988;10.318;2023-05-02T10:18:27;99430.16;;;15.05;61.54
28181;BME280;15464;50.988;10.318;2023-05-02T10:20:58;99440.66;;;15.07;57.74
28181;BME280;15464;50.988;10.318;2023-05-02T10:23:26;99440.88;;;14.96;57.94
28181;BME280;15464;50.988;10.318;2023-05-02T10:25:53;99455.25;;;14.85;57.87
28181;BME280;15464;50.988;10.318;2023-05-02T10:28:22;99442.50;;;14.69;58.83
28181;BME280;15464;50.988;10.318;2023-05-02T10:30:50;99448.13;;;14.66;58.38
28181;BME280;15464;50.988;10.318;2023-05-02T10:33:20;99448.88;;;14.20;58.45
28181;BME280;15464;50.988;10.318;2023-05-02T10:35:47;99462.63;;;14.16;57.46
28181;BME280;15464;50.988;10.318;2023-05-02T10:38:20;99456.59;;;14.23;57.57
28181;BME280;15464;50.988;10.318;2023-05-02T10:40:56;99461.22;;;14.31;57.97
28181;BME280;15464;50.988;10.318;2023-05-02T10:43:26;99456.88;;;14.30;58.10
28181;BME280;15464;50.988;10.318;2023-05-02T10:45:54;99456.72;;;14.22;59.11
28181;BME280;15464;50.988;10.318;2023-05-02T10:48:23;99455.03;;;14.21;59.24
28181;BME280;15464;50.988;10.318;2023-05-02T10:50:57;99452.38;;;14.49;59.96
28181;BME280;15464;50.988;10.318;2023-05-02T10:53:29;99456.31;;;14.26;61.29
28181;BME280;15464;50.988;10.318;2023-05-02T10:58:42;99457.88;;;14.48;59.61
28181;BME280;15464;50.988;10.318;2023-05-02T11:03:54;99466.28;;;14.53;59.06
28181;BME280;15464;50.988;10.318;2023-05-02T11:06:22;99461.75;;;14.73;58.80
28181;BME280;15464;50.988;10.318;2023-05-02T11:08:49;99470.63;;;14.44;59.21
28181;BME280;15464;50.988;10.318;2023-05-02T11:11:38;99483.13;;;14.15;60.05
28181;BME280;15464;50.988;10.318;2023-05-02T11:14:07;99487.59;;;14.24;59.80
28181;BME280;15464;50.988;10.318;2023-05-02T11:19:24;99490.13;;;14.06;62.71
28181;BME280;15464;50.988;10.318;2023-05-02T11:21:51;99485.34;;;13.81;61.63
28181;BME280;15464;50.988;10.318;2023-05-02T11:30:07;99490.75;;;14.48;59.67
28181;BME280;15464;50.988;10.318;2023-05-02T11:35:18;99491.41;;;15.16;58.27
28181;BME280;15464;50.988;10.318;2023-05-02T11:38:04;99479.94;;;15.88;56.26
28181;BME280;15464;50.988;10.318;2023-05-02T11:40:31;99492.81;;;15.75;55.89
28181;BME280;15464;50.988;10.318;2023-05-02T11:42:59;99487.81;;;14.98;57.83
28181;BME280;15464;50.988;10.318;2023-05-02T11:45:35;99493.63;;;14.84;59.42
28181;BME280;15464;50.988;10.318;2023-05-02T11:48:04;99489.78;;;14.96;59.61
28181;BME280;15464;50.988;10.318;2023-05-02T11:50:32;99492.75;;;14.93;58.93
28181;BME280;15464;50.988;10.318;2023-05-02T11:52:59;99497.41;;;15.65;57.02
28181;BME280;15464;50.988;10.318;2023-05-02T11:55:26;99508.16;;;15.46;58.60
28181;BME280;15464;50.988;10.318;2023-05-02T11:57:54;99501.47;;;15.87;57.19
28181;BME280;15464;50.988;10.318;2023-05-02T12:00:26;99501.00;;;15.09;57.75
28181;BME280;15464;50.988;10.318;2023-05-02T12:02:52;99514.28;;;14.82;59.71
28181;BME280;15464;50.988;10.318;2023-05-02T12:05:27;99518.22;;;14.78;59.26
28181;BME280;15464;50.988;10.318;2023-05-02T12:07:55;99514.19;;;14.35;60.89
28181;BME280;15464;50.988;10.318;2023-05-02T12:10:22;99516.28;;;14.22;62.12
28181;BME280;15464;50.988;10.318;2023-05-02T12:12:49;99523.34;;;14.42;62.61
28181;BME280;15464;50.988;10.318;2023-05-02T12:15:16;99522.72;;;14.20;62.87
28181;BME280;15464;50.988;10.318;2023-05-02T12:17:47;99527.78;;;14.32;61.74
28181;BME280;15464;50.988;10.318;2023-05-02T12:20:14;99534.03;;;14.42;61.22
28181;BME280;15464;50.988;10.318;2023-05-02T12:22:42;99533.28;;;14.50;60.53
28181;BME280;15464;50.988;10.318;2023-05-02T12:25:09;99526.97;;;14.80;60.50
28181;BME280;15464;50.988;10.318;2023-05-02T12:27:36;99526.34;;;15.05;59.05
28181;BME280;15464;50.988;10.318;2023-05-02T12:30:03;99540.41;;;14.88;59.86
28181;BME280;15464;50.988;10.318;2023-05-02T12:32:33;99540.31;;;14.61;59.93
28181;BME280;15464;50.988;10.318;2023-05-02T12:35:01;99554.44;;;14.13;59.87
28181;BME280;15464;50.988;10.318;2023-05-02T12:37:29;99552.59;;;13.85;60.69
28181;BME280;15464;50.988;10.318;2023-05-02T12:39:56;99551.00;;;13.72;62.30
28181;BME280;15464;50.988;10.318;2023-05-02T12:42:24;99554.00;;;13.89;62.07
28181;BME280;15464;50.988;10.318;2023-05-02T12:44:51;99562.84;;;13.89;62.54
28181;BME280;15464;50.988;10.318;2023-05-02T12:47:20;99566.06;;;13.83;61.43
28181;BME280;15464;50.988;10.318;2023-05-02T12:52:20;99571.31;;;13.64;62.15
28181;BME280;15464;50.988;10.318;2023-05-02T12:54:47;99567.63;;;13.86;61.95
28181;BME280;15464;50.988;10.318;2023-05-02T12:57:23;99577.00;;;13.80;62.87
28181;BME280;15464;50.988;10.318;2023-05-02T12:59:53;99577.19;;;13.58;63.19
28181;BME280;15464;50.988;10.318;2023-05-02T13:02:20;99586.03;;;13.28;63.42
28181;BME280;15464;50.988;10.318;2023-05-02T13:04:48;99596.03;;;13.36;64.20
28181;BME280;15464;50.988;10.318;2023-05-02T13:07:15;99592.91;;;13.30;63.38
28181;BME280;15464;50.988;10.318;2023-05-02T13:09:42;99600.78;;;13.32;63.05
28181;BME280;15464;50.988;10.318;2023-05-02T13:12:08;99597.66;;;13.27;62.96
28181;BME280;15464;50.988;10.318;2023-05-02T13:14:35;99606.63;;;13.26;62.99
28181;BME280;15464;50.988;10.318;2023-05-02T13:17:02;99609.69;;;13.21;63.14
28181;BME280;15464;50.988;10.318;2023-05-02T13:19:29;99604.22;;;13.02;63.16
28181;BME280;15464;50.988;10.318;2023-05-02T13:21:57;99607.84;;;13.01;63.72
28181;BME280;15464;50.988;10.318;2023-05-02T13:24:23;99604.94;;;13.04;63.34
28181;BME280;15464;50.988;10.318;2023-05-02T13:26:50;99618.22;;;12.83;63.83
28181;BME280;15464;50.988;10.318;2023-05-02T13:29:17;99611.00;;;12.74;63.75
28181;BME280;15464;50.988;10.318;2023-05-02T13:31:43;99606.84;;;12.81;64.34
28181;BME280;15464;50.988;10.318;2023-05-02T13:34:10;99603.97;;;12.84;63.85
28181;BME280;15464;50.988;10.318;2023-05-02T13:36:37;99611.72;;;12.76;64.36
28181;BME280;15464;50.988;10.318;2023-05-02T13:39:12;99619.72;;;12.76;64.50
28181;BME280;15464;50.988;10.318;2023-05-02T13:41:39;99622.84;;;12.81;64.28